WJA2477 BGBW-BGGH
Flight info
| Callsign | WJA2477 |
|---|---|
| Flight time | N/A |
| Altitude | 28000 |
| Route | M066F280 DCT OVEDA Y26 NUKRI DCT |
| Aircraft | B738/M-SDE2E3FGHIRWXY/LB1 |
Departure
| Time | 2026-04-15 09:42 |
|---|---|
| Airport | Narsarsuaq Airport (BGBW) |
Arrival
| Time | N/A |
|---|---|
| Airport | Nuuk International Airport (BGGH) |
| Time | Latitude | Longitude | Altitude | Speed | Heading |
|---|---|---|---|---|---|
| 2026-04-15 09:16 | 61.16255 | -45.41778 | 170 ft | 0 kts | 220° |
| 2026-04-15 09:38 | 61.16253 | -45.41782 | 170 ft | 2 kts | 220° |
| 2026-04-15 09:38 | 61.16236 | -45.41839 | 170 ft | 8 kts | 270° |
| 2026-04-15 09:38 | 61.16298 | -45.42015 | 151 ft | 19 kts | 310° |
| 2026-04-15 09:38 | 61.16384 | -45.42027 | 135 ft | 18 kts | 46° |
| 2026-04-15 09:39 | 61.16484 | -45.41838 | 126 ft | 21 kts | 42° |
| 2026-04-15 09:39 | 61.16654 | -45.41582 | 116 ft | 9 kts | 358° |
| 2026-04-15 09:39 | 61.16686 | -45.41538 | 116 ft | 0 kts | 99° |
| 2026-04-15 09:40 | 61.16687 | -45.41542 | 116 ft | 0 kts | 91° |
| 2026-04-15 09:40 | 61.16685 | -45.41535 | 117 ft | 1 kts | 112° |
| 2026-04-15 09:40 | 61.16655 | -45.41537 | 120 ft | 8 kts | 210° |
| 2026-04-15 09:40 | 61.16630 | -45.41581 | 119 ft | 1 kts | 219° |
| 2026-04-15 09:41 | 61.16628 | -45.41584 | 119 ft | 0 kts | 219° |
| 2026-04-15 09:41 | 61.16602 | -45.41629 | 119 ft | 15 kts | 219° |
| 2026-04-15 09:42 | 61.16376 | -45.42026 | 136 ft | 79 kts | 220° |
| 2026-04-15 09:42 | 61.15750 | -45.43131 | 98 ft | 157 kts | 221° |
| 2026-04-15 09:42 | 61.14864 | -45.44778 | 609 ft | 175 kts | 222° |
| 2026-04-15 09:42 | 61.14138 | -45.46537 | 1653 ft | 168 kts | 243° |
| 2026-04-15 09:43 | 61.13897 | -45.49037 | 1889 ft | 195 kts | 279° |
| 2026-04-15 09:43 | 61.14496 | -45.51433 | 2747 ft | 182 kts | 323° |
| 2026-04-15 09:43 | 61.15637 | -45.52135 | 3278 ft | 189 kts | 9° |
| 2026-04-15 09:43 | 61.16782 | -45.50608 | 3647 ft | 205 kts | 50° |
| 2026-04-15 09:44 | 61.17614 | -45.48453 | 4726 ft | 188 kts | 52° |
| 2026-04-15 09:44 | 61.18279 | -45.46034 | 5092 ft | 209 kts | 78° |
| 2026-04-15 09:44 | 61.18151 | -45.43129 | 5880 ft | 207 kts | 112° |
| 2026-04-15 09:44 | 61.17237 | -45.40814 | 6461 ft | 218 kts | 148° |
| 2026-04-15 09:45 | 61.15772 | -45.40022 | 7007 ft | 227 kts | 186° |
| 2026-04-15 09:45 | 61.14357 | -45.41245 | 7760 ft | 226 kts | 224° |
| 2026-04-15 09:45 | 61.13551 | -45.44093 | 8069 ft | 247 kts | 259° |
| 2026-04-15 09:45 | 61.13627 | -45.47906 | 7622 ft | 298 kts | 289° |
| 2026-04-15 09:46 | 61.14796 | -45.51494 | 8317 ft | 305 kts | 322° |
| 2026-04-15 09:46 | 61.16539 | -45.53102 | 10206 ft | 270 kts | 346° |
| 2026-04-15 09:46 | 61.18446 | -45.53749 | 10685 ft | 287 kts | 353° |
| 2026-04-15 09:46 | 61.20439 | -45.54411 | 11169 ft | 302 kts | 345° |
| 2026-04-15 09:47 | 61.22452 | -45.55862 | 11619 ft | 316 kts | 334° |
| 2026-04-15 09:47 | 61.24400 | -45.58168 | 12051 ft | 331 kts | 326° |
| 2026-04-15 09:47 | 61.26254 | -45.61044 | 12715 ft | 337 kts | 321° |
| 2026-04-15 09:47 | 61.28048 | -45.64165 | 13429 ft | 341 kts | 319° |
| 2026-04-15 09:48 | 61.29847 | -45.67415 | 14128 ft | 346 kts | 318° |
| 2026-04-15 09:48 | 61.31657 | -45.70697 | 14837 ft | 350 kts | 317° |
| 2026-04-15 09:48 | 61.33508 | -45.74027 | 15538 ft | 355 kts | 318° |
| 2026-04-15 09:48 | 61.35371 | -45.77380 | 16200 ft | 359 kts | 317° |
| 2026-04-15 09:49 | 61.37214 | -45.80898 | 16845 ft | 363 kts | 315° |
| 2026-04-15 09:49 | 61.39034 | -45.84555 | 17474 ft | 367 kts | 314° |
| 2026-04-15 09:49 | 61.40845 | -45.88263 | 18148 ft | 370 kts | 313° |
| 2026-04-15 09:49 | 61.42689 | -45.92039 | 18774 ft | 374 kts | 313° |
| 2026-04-15 09:50 | 61.44546 | -45.95821 | 19405 ft | 378 kts | 313° |
| 2026-04-15 09:50 | 61.46419 | -45.99618 | 20001 ft | 382 kts | 314° |
| 2026-04-15 09:50 | 61.48342 | -46.03504 | 20602 ft | 387 kts | 314° |
| 2026-04-15 09:50 | 61.50272 | -46.07406 | 21211 ft | 391 kts | 313° |
| 2026-04-15 09:51 | 61.52224 | -46.11358 | 21804 ft | 395 kts | 313° |
| 2026-04-15 09:51 | 61.54193 | -46.15350 | 22379 ft | 399 kts | 313° |
| 2026-04-15 09:51 | 61.56199 | -46.19427 | 22949 ft | 402 kts | 313° |
| 2026-04-15 09:51 | 61.58194 | -46.23488 | 23688 ft | 401 kts | 313° |
| 2026-04-15 09:52 | 61.60173 | -46.27519 | 24415 ft | 400 kts | 313° |
| 2026-04-15 09:52 | 61.62145 | -46.31545 | 25108 ft | 398 kts | 313° |
| 2026-04-15 09:52 | 61.64117 | -46.35582 | 25761 ft | 398 kts | 313° |
| 2026-04-15 09:52 | 61.66082 | -46.39610 | 26442 ft | 395 kts | 313° |
| 2026-04-15 09:53 | 61.68027 | -46.43608 | 27056 ft | 394 kts | 313° |
| 2026-04-15 09:53 | 61.69975 | -46.47621 | 27595 ft | 394 kts | 313° |
| 2026-04-15 09:53 | 61.71955 | -46.51709 | 27695 ft | 398 kts | 313° |
| 2026-04-15 09:53 | 61.73906 | -46.55742 | 27707 ft | 396 kts | 313° |
| 2026-04-15 09:54 | 61.75867 | -46.59801 | 27702 ft | 393 kts | 313° |
| 2026-04-15 09:54 | 61.77794 | -46.63795 | 27704 ft | 392 kts | 313° |
| 2026-04-15 09:54 | 61.79744 | -46.67844 | 27704 ft | 392 kts | 312° |
| 2026-04-15 09:54 | 61.81693 | -46.71904 | 27697 ft | 392 kts | 312° |
| 2026-04-15 09:55 | 61.83651 | -46.75990 | 27703 ft | 392 kts | 312° |
| 2026-04-15 09:55 | 61.85578 | -46.80020 | 27697 ft | 392 kts | 312° |
| 2026-04-15 09:55 | 61.87488 | -46.84021 | 27695 ft | 391 kts | 312° |
| 2026-04-15 09:55 | 61.89418 | -46.88071 | 27696 ft | 391 kts | 312° |
| 2026-04-15 09:56 | 61.91339 | -46.92110 | 27689 ft | 391 kts | 312° |
| 2026-04-15 09:56 | 61.93273 | -46.96184 | 27691 ft | 391 kts | 312° |
| 2026-04-15 09:56 | 61.97109 | -47.04282 | 27677 ft | 390 kts | 312° |
| 2026-04-15 09:57 | 61.99017 | -47.08322 | 27678 ft | 390 kts | 312° |
| 2026-04-15 09:57 | 62.00940 | -47.12402 | 27684 ft | 390 kts | 312° |
| 2026-04-15 09:57 | 62.02855 | -47.16477 | 27685 ft | 391 kts | 312° |
| 2026-04-15 09:57 | 62.04756 | -47.20523 | 27687 ft | 391 kts | 312° |
| 2026-04-15 09:58 | 62.06691 | -47.24643 | 27691 ft | 391 kts | 312° |
| 2026-04-15 09:58 | 62.08599 | -47.28710 | 27692 ft | 392 kts | 312° |
| 2026-04-15 09:58 | 62.10540 | -47.32844 | 27700 ft | 392 kts | 312° |
| 2026-04-15 09:58 | 62.12434 | -47.36900 | 27702 ft | 391 kts | 312° |
| 2026-04-15 09:59 | 62.14357 | -47.41052 | 27696 ft | 390 kts | 311° |
| 2026-04-15 09:59 | 62.16259 | -47.45172 | 27701 ft | 391 kts | 312° |
| 2026-04-15 09:59 | 62.18153 | -47.49275 | 27702 ft | 391 kts | 312° |
| 2026-04-15 09:59 | 62.20048 | -47.53369 | 27700 ft | 390 kts | 312° |
| 2026-04-15 10:00 | 62.21968 | -47.57521 | 27703 ft | 390 kts | 312° |
| 2026-04-15 10:00 | 62.23850 | -47.61604 | 27701 ft | 390 kts | 312° |
| 2026-04-15 10:00 | 62.25755 | -47.65747 | 27703 ft | 390 kts | 311° |
| 2026-04-15 10:00 | 62.27640 | -47.69858 | 27704 ft | 390 kts | 311° |
| 2026-04-15 10:01 | 62.29533 | -47.74011 | 27704 ft | 390 kts | 311° |
| 2026-04-15 10:01 | 62.31427 | -47.78158 | 27705 ft | 390 kts | 311° |
| 2026-04-15 10:01 | 62.33328 | -47.82314 | 27705 ft | 390 kts | 311° |
| 2026-04-15 10:01 | 62.35206 | -47.86419 | 27705 ft | 390 kts | 311° |
| 2026-04-15 10:02 | 62.37113 | -47.90595 | 27693 ft | 390 kts | 311° |
| 2026-04-15 10:02 | 62.39000 | -47.94741 | 27699 ft | 389 kts | 311° |
| 2026-04-15 10:02 | 62.40873 | -47.98876 | 27697 ft | 390 kts | 311° |
| 2026-04-15 10:02 | 62.42780 | -48.03099 | 27690 ft | 391 kts | 311° |
| 2026-04-15 10:03 | 62.44664 | -48.07259 | 27683 ft | 391 kts | 311° |
| 2026-04-15 10:03 | 62.46568 | -48.11475 | 27683 ft | 391 kts | 311° |
| 2026-04-15 10:03 | 62.48452 | -48.15683 | 27673 ft | 391 kts | 311° |
| 2026-04-15 10:03 | 62.50346 | -48.19877 | 27671 ft | 390 kts | 311° |
| 2026-04-15 10:04 | 62.52232 | -48.24040 | 27677 ft | 391 kts | 311° |
| 2026-04-15 10:04 | 62.54143 | -48.28270 | 27666 ft | 391 kts | 311° |
| 2026-04-15 10:04 | 62.56026 | -48.32413 | 27667 ft | 392 kts | 311° |
| 2026-04-15 10:04 | 62.57928 | -48.36615 | 27668 ft | 392 kts | 311° |
| 2026-04-15 10:05 | 62.59829 | -48.40877 | 27652 ft | 391 kts | 310° |
| 2026-04-15 10:05 | 62.61700 | -48.45094 | 27654 ft | 393 kts | 310° |
| 2026-04-15 10:05 | 62.63578 | -48.49366 | 27640 ft | 392 kts | 310° |
| 2026-04-15 10:05 | 62.65459 | -48.53646 | 27646 ft | 391 kts | 310° |
| 2026-04-15 10:06 | 62.67321 | -48.57903 | 27641 ft | 392 kts | 310° |
| 2026-04-15 10:06 | 62.69235 | -48.62221 | 27635 ft | 393 kts | 310° |
| 2026-04-15 10:06 | 62.71122 | -48.66492 | 27628 ft | 391 kts | 309° |
| 2026-04-15 10:06 | 62.72974 | -48.70736 | 27624 ft | 392 kts | 309° |
| 2026-04-15 10:07 | 62.74866 | -48.75042 | 27624 ft | 391 kts | 309° |
| 2026-04-15 10:07 | 62.76754 | -48.79352 | 27628 ft | 392 kts | 310° |
| 2026-04-15 10:07 | 62.78615 | -48.83635 | 27624 ft | 392 kts | 309° |
| 2026-04-15 10:07 | 62.80490 | -48.87872 | 27628 ft | 391 kts | 310° |
| 2026-04-15 10:08 | 62.82375 | -48.92153 | 27633 ft | 392 kts | 310° |
| 2026-04-15 10:08 | 62.84239 | -48.96414 | 27628 ft | 392 kts | 309° |
| 2026-04-15 10:08 | 62.86120 | -49.00741 | 27628 ft | 391 kts | 310° |
| 2026-04-15 10:08 | 62.87986 | -49.05049 | 27633 ft | 392 kts | 309° |
| 2026-04-15 10:09 | 62.89842 | -49.09354 | 27638 ft | 391 kts | 310° |
| 2026-04-15 10:09 | 62.91718 | -49.13638 | 27650 ft | 392 kts | 310° |
| 2026-04-15 10:09 | 62.93604 | -49.17947 | 27651 ft | 394 kts | 309° |
| 2026-04-15 10:09 | 62.95496 | -49.22359 | 27656 ft | 393 kts | 309° |
| 2026-04-15 10:10 | 62.97352 | -49.26704 | 27658 ft | 392 kts | 309° |
| 2026-04-15 10:10 | 62.99210 | -49.31059 | 27672 ft | 393 kts | 309° |
| 2026-04-15 10:10 | 63.01075 | -49.35432 | 27693 ft | 394 kts | 310° |
| 2026-04-15 10:10 | 63.02949 | -49.39723 | 27698 ft | 391 kts | 310° |
| 2026-04-15 10:11 | 63.04805 | -49.44045 | 27714 ft | 392 kts | 309° |
| 2026-04-15 10:11 | 63.06668 | -49.48456 | 27729 ft | 394 kts | 309° |
| 2026-04-15 10:11 | 63.08534 | -49.52908 | 27746 ft | 392 kts | 309° |
| 2026-04-15 10:11 | 63.10367 | -49.57276 | 27751 ft | 393 kts | 309° |
| 2026-04-15 10:12 | 63.12226 | -49.61709 | 27756 ft | 394 kts | 309° |
| 2026-04-15 10:12 | 63.14078 | -49.66121 | 27754 ft | 392 kts | 308° |
| 2026-04-15 10:12 | 63.15918 | -49.70511 | 27761 ft | 393 kts | 308° |
| 2026-04-15 10:12 | 63.17774 | -49.74887 | 27764 ft | 393 kts | 308° |
| 2026-04-15 10:13 | 63.19651 | -49.79332 | 27763 ft | 392 kts | 308° |
| 2026-04-15 10:13 | 63.21494 | -49.83738 | 27761 ft | 392 kts | 308° |
| 2026-04-15 10:13 | 63.23352 | -49.88207 | 27738 ft | 394 kts | 308° |
| 2026-04-15 10:13 | 63.25207 | -49.92686 | 27721 ft | 394 kts | 307° |
| 2026-04-15 10:14 | 63.27050 | -49.97136 | 27704 ft | 394 kts | 308° |
| 2026-04-15 10:14 | 63.28908 | -50.01619 | 27690 ft | 394 kts | 308° |
| 2026-04-15 10:14 | 63.30748 | -50.06062 | 27707 ft | 395 kts | 307° |
| 2026-04-15 10:14 | 63.32601 | -50.10543 | 27709 ft | 396 kts | 308° |
| 2026-04-15 10:15 | 63.34466 | -50.15062 | 27721 ft | 396 kts | 308° |
| 2026-04-15 10:15 | 63.36332 | -50.19596 | 27740 ft | 396 kts | 308° |
| 2026-04-15 10:15 | 63.38168 | -50.24070 | 27748 ft | 391 kts | 307° |
| 2026-04-15 10:15 | 63.39972 | -50.28466 | 27602 ft | 383 kts | 307° |
| 2026-04-15 10:16 | 63.41737 | -50.32780 | 27288 ft | 376 kts | 307° |
| 2026-04-15 10:16 | 63.43502 | -50.37060 | 26845 ft | 374 kts | 308° |
| 2026-04-15 10:16 | 63.45256 | -50.41308 | 26398 ft | 371 kts | 307° |
| 2026-04-15 10:16 | 63.46977 | -50.45537 | 25933 ft | 369 kts | 307° |
| 2026-04-15 10:17 | 63.48679 | -50.49749 | 25485 ft | 366 kts | 307° |
| 2026-04-15 10:17 | 63.50374 | -50.53959 | 25022 ft | 364 kts | 306° |
| 2026-04-15 10:17 | 63.52048 | -50.58191 | 24515 ft | 364 kts | 307° |
| 2026-04-15 10:17 | 63.53733 | -50.62379 | 24051 ft | 362 kts | 307° |
| 2026-04-15 10:18 | 63.55406 | -50.66546 | 23586 ft | 360 kts | 306° |
| 2026-04-15 10:18 | 63.57070 | -50.70653 | 23131 ft | 359 kts | 306° |
| 2026-04-15 10:18 | 63.58736 | -50.74777 | 22671 ft | 357 kts | 306° |
| 2026-04-15 10:18 | 63.60395 | -50.78910 | 22217 ft | 355 kts | 306° |
| 2026-04-15 10:19 | 63.62028 | -50.82994 | 21769 ft | 354 kts | 306° |
| 2026-04-15 10:19 | 63.63661 | -50.87089 | 21325 ft | 352 kts | 306° |
| 2026-04-15 10:19 | 63.65269 | -50.91128 | 20887 ft | 350 kts | 306° |
| 2026-04-15 10:19 | 63.66894 | -50.95215 | 20429 ft | 348 kts | 306° |
| 2026-04-15 10:20 | 63.68480 | -50.99213 | 20006 ft | 347 kts | 306° |
| 2026-04-15 10:20 | 63.70084 | -51.03262 | 19558 ft | 345 kts | 306° |
| 2026-04-15 10:20 | 63.71670 | -51.07270 | 19144 ft | 342 kts | 306° |
| 2026-04-15 10:20 | 63.73226 | -51.11208 | 18721 ft | 341 kts | 306° |
| 2026-04-15 10:21 | 63.74802 | -51.15200 | 18341 ft | 338 kts | 306° |
| 2026-04-15 10:21 | 63.76349 | -51.19128 | 17923 ft | 335 kts | 306° |
| 2026-04-15 10:21 | 63.77892 | -51.23056 | 17510 ft | 333 kts | 306° |
| 2026-04-15 10:21 | 63.79473 | -51.26840 | 17072 ft | 336 kts | 312° |
| 2026-04-15 10:22 | 63.81379 | -51.29888 | 16615 ft | 343 kts | 333° |
| 2026-04-15 10:22 | 63.83703 | -51.31122 | 16206 ft | 346 kts | 357° |
| 2026-04-15 10:22 | 63.86079 | -51.30995 | 15755 ft | 345 kts | 4° |
| 2026-04-15 10:22 | 63.88466 | -51.30576 | 15301 ft | 343 kts | 5° |
| 2026-04-15 10:23 | 63.90813 | -51.30139 | 14886 ft | 342 kts | 5° |
| 2026-04-15 10:23 | 63.93187 | -51.29744 | 14434 ft | 342 kts | 5° |
| 2026-04-15 10:23 | 63.95556 | -51.29400 | 13981 ft | 342 kts | 4° |
| 2026-04-15 10:23 | 63.97912 | -51.29092 | 13530 ft | 342 kts | 4° |
| 2026-04-15 10:24 | 64.00291 | -51.28832 | 13098 ft | 340 kts | 3° |
| 2026-04-15 10:24 | 64.01439 | -51.28708 | 12885 ft | 340 kts | 4° |
| 2026-04-15 10:24 | 64.01447 | -51.28707 | 12865 ft | 340 kts | 4° |
| 2026-04-15 10:24 | 64.02106 | -51.28631 | 12763 ft | 338 kts | 4° |
| 2026-04-15 10:25 | 64.04433 | -51.28342 | 12284 ft | 337 kts | 4° |
| 2026-04-15 10:25 | 64.06741 | -51.28034 | 11896 ft | 334 kts | 4° |
| 2026-04-15 10:25 | 64.06889 | -51.28014 | 11871 ft | 334 kts | 5° |
| 2026-04-15 10:25 | 64.08093 | -51.27851 | 11677 ft | 333 kts | 4° |
| 2026-04-15 10:26 | 64.10402 | -51.27548 | 11220 ft | 334 kts | 4° |
| 2026-04-15 10:26 | 64.12691 | -51.27247 | 10776 ft | 334 kts | 4° |
| 2026-04-15 10:26 | 64.15006 | -51.26965 | 10337 ft | 332 kts | 4° |
| 2026-04-15 10:26 | 64.17258 | -51.26703 | 9920 ft | 322 kts | 4° |
| 2026-04-15 10:27 | 64.19447 | -51.26440 | 9736 ft | 308 kts | 4° |
| 2026-04-15 10:27 | 64.21540 | -51.26179 | 9485 ft | 303 kts | 4° |
| 2026-04-15 10:27 | 64.23660 | -51.25919 | 9026 ft | 306 kts | 4° |
| 2026-04-15 10:27 | 64.25781 | -51.25657 | 8626 ft | 306 kts | 4° |
| 2026-04-15 10:28 | 64.27890 | -51.25397 | 8242 ft | 306 kts | 4° |
| 2026-04-15 10:28 | 64.30005 | -51.25138 | 7863 ft | 304 kts | 4° |
| 2026-04-15 10:28 | 64.32090 | -51.24886 | 7468 ft | 304 kts | 4° |
| 2026-04-15 10:28 | 64.34183 | -51.24765 | 7283 ft | 295 kts | 358° |
| 2026-04-15 10:29 | 64.36175 | -51.25531 | 7278 ft | 287 kts | 337° |
| 2026-04-15 10:29 | 64.37739 | -51.28005 | 7303 ft | 265 kts | 304° |
| 2026-04-15 10:29 | 64.38593 | -51.31537 | 7175 ft | 246 kts | 281° |
| 2026-04-15 10:29 | 64.39086 | -51.35285 | 6848 ft | 245 kts | 279° |
| 2026-04-15 10:30 | 64.39601 | -51.39078 | 6457 ft | 247 kts | 282° |
| 2026-04-15 10:30 | 64.40125 | -51.42807 | 6075 ft | 244 kts | 281° |
| 2026-04-15 10:30 | 64.40526 | -51.46452 | 5667 ft | 224 kts | 271° |
| 2026-04-15 10:30 | 64.40350 | -51.49704 | 5280 ft | 194 kts | 238° |
| 2026-04-15 10:31 | 64.39524 | -51.51861 | 4941 ft | 172 kts | 206° |
| 2026-04-15 10:31 | 64.38483 | -51.53070 | 4633 ft | 165 kts | 201° |
| 2026-04-15 10:31 | 64.37470 | -51.54121 | 4385 ft | 160 kts | 199° |
| 2026-04-15 10:31 | 64.36403 | -51.55064 | 4195 ft | 166 kts | 197° |